Time;durP1;ratioP1;P1;durP2;ratioP2;P2;SDS_P1;SDS_P2;PMS_P1;PMS_P2;Temp;Humidity;BMP_temperature;BMP_pressure;BME280_temperature;BME280_humidity;BME280_pressure;Samples;Min_cycle;Max_cycle;Signal;HPM_P1;HPM_P2
2022/01/28 00:02:40;;;;;;;8.30;1.63;;;;;;;;;;5069887;28;20048;-70
2022/01/28 00:04:59;;;;;;;8.55;1.60;;;;;;;;;;5069278;28;20056;-71
2022/01/28 00:07:25;;;;;;;8.02;1.60;;;;;;;;;;5053322;28;20399;-71
2022/01/28 00:09:51;;;;;;;15.80;2.35;;;;;;;;;;5069247;28;20048;-71
2022/01/28 00:12:17;;;;;;;12.90;2.03;;;;;;;;;;5069960;28;20161;-71
2022/01/28 00:15:22;;;;;;;10.48;1.50;;;;;;;;;;5069584;28;20039;-71
2022/01/28 00:38:57;;;;;;;12.02;1.73;;;;;;;;;;5102568;28;20155;-71
2022/01/28 00:41:23;;;;;;;15.95;2.10;;;;;;;;;;5103501;28;20486;-71
2022/01/28 00:43:49;;;;;;;17.50;2.63;;;;;;;;;;5103054;28;20054;-71
2022/01/28 00:46:15;;;;;;;11.52;1.85;;;;;;;;;;5102427;28;20045;-71
2022/01/28 00:48:41;;;;;;;20.13;2.75;;;;;;;;;;5103068;28;20044;-71
2022/01/28 00:51:07;;;;;;;18.92;2.63;;;;;;;;;;5103252;28;20045;-70
2022/01/28 00:53:33;;;;;;;17.65;1.90;;;;;;;;;;5102407;28;20044;-70
2022/01/28 00:55:59;;;;;;;13.93;1.90;;;;;;;;;;5070422;28;20093;-70
2022/01/28 00:58:25;;;;;;;13.88;2.40;;;;;;;;;;5103262;28;20105;-70
2022/01/28 01:00:51;;;;;;;14.70;2.22;;;;;;;;;;5102298;28;20037;-70
2022/01/28 01:03:17;;;;;;;20.90;2.22;;;;;;;;;;5102820;28;20083;-70
2022/01/28 01:05:43;;;;;;;18.02;3.00;;;;;;;;;;5102547;28;20101;-70
2022/01/28 01:08:09;;;;;;;20.77;3.00;;;;;;;;;;5102530;28;20069;-70
2022/01/28 01:10:36;;;;;;;18.27;2.67;;;;;;;;;;5102614;28;20040;-70
2022/01/28 01:13:02;;;;;;;16.00;2.50;;;;;;;;;;5102649;28;20048;-70
2022/01/28 01:15:34;;;;;;;23.20;2.55;;;;;;;;;;5102285;28;20052;-70
2022/01/28 01:18:11;;;;;;;23.50;2.58;;;;;;;;;;5103064;28;20048;-70
2022/01/28 01:23:09;;;;;;;22.27;2.67;;;;;;;;;;5102283;28;20083;-71
2022/01/28 01:25:44;;;;;;;19.25;3.45;;;;;;;;;;5098604;28;20439;-71
2022/01/28 01:28:11;;;;;;;17.80;2.88;;;;;;;;;;5065330;28;20083;-71
2022/01/28 01:30:40;;;;;;;21.98;2.28;;;;;;;;;;5048346;28;20127;-71
2022/01/28 01:33:07;;;;;;;19.38;2.97;;;;;;;;;;5048732;28;20044;-71
2022/01/28 01:35:33;;;;;;;15.57;2.47;;;;;;;;;;5048807;28;20033;-71
2022/01/28 01:37:59;;;;;;;24.70;2.50;;;;;;;;;;5048491;28;20535;-71
2022/01/28 01:40:32;;;;;;;14.93;2.28;;;;;;;;;;5048882;28;20043;-71
2022/01/28 01:43:45;;;;;;;13.90;2.17;;;;;;;;;;5048859;28;20487;-71
2022/01/28 01:53:45;;;;;;;20.60;2.83;;;;;;;;;;5081266;28;20115;-70
2022/01/28 01:56:12;;;;;;;15.43;2.05;;;;;;;;;;5048481;28;20037;-70
2022/01/28 01:58:40;;;;;;;16.00;1.92;;;;;;;;;;5048863;28;20395;-70
2022/01/28 02:01:06;;;;;;;15.30;2.17;;;;;;;;;;5081393;28;20048;-71
2022/01/28 02:03:32;;;;;;;10.00;2.30;;;;;;;;;;5048302;28;20045;-71
2022/01/28 02:05:59;;;;;;;17.15;2.83;;;;;;;;;;5048383;28;20049;-71
2022/01/28 02:08:26;;;;;;;20.05;2.78;;;;;;;;;;5047686;28;20093;-71
2022/01/28 02:10:56;;;;;;;12.27;1.90;;;;;;;;;;5048162;28;20052;-71
2022/01/28 02:13:22;;;;;;;15.38;2.30;;;;;;;;;;5048074;28;20041;-71
2022/01/28 02:15:48;;;;;;;14.20;2.97;;;;;;;;;;5047550;28;20040;-71
2022/01/28 02:18:14;;;;;;;28.35;3.13;;;;;;;;;;5048459;28;20044;-71
2022/01/28 02:20:43;;;;;;;16.52;2.95;;;;;;;;;;5050938;28;20045;-71
2022/01/28 02:23:09;;;;;;;22.00;2.88;;;;;;;;;;5051763;28;20044;-71
2022/01/28 02:25:35;;;;;;;21.25;2.92;;;;;;;;;;5071669;28;20109;-71
2022/01/28 02:28:03;;;;;;;17.25;2.30;;;;;;;;;;5105700;28;20388;-71
2022/01/28 02:30:30;;;;;;;18.02;2.30;;;;;;;;;;5104858;28;20045;-70
2022/01/28 02:33:02;;;;;;;14.15;2.20;;;;;;;;;;5105729;28;20120;-70
2022/01/28 02:35:28;;;;;;;19.52;2.45;;;;;;;;;;5105655;28;20477;-70
2022/01/28 02:37:54;;;;;;;16.88;2.83;;;;;;;;;;5072757;28;20398;-71
2022/01/28 02:40:20;;;;;;;20.90;3.50;;;;;;;;;;5105825;28;20037;-71
2022/01/28 02:43:00;;;;;;;18.48;2.45;;;;;;;;;;5105799;28;20040;-71
2022/01/28 02:45:32;;;;;;;19.92;2.83;;;;;;;;;;5104791;28;20065;-71
2022/01/28 02:48:02;;;;;;;29.00;3.65;;;;;;;;;;5105352;28;20118;-71
2022/01/28 02:50:33;;;;;;;20.80;3.58;;;;;;;;;;5105207;28;20054;-71
2022/01/28 02:53:05;;;;;;;15.77;2.13;;;;;;;;;;5104735;28;20066;-71
2022/01/28 02:55:36;;;;;;;;;;;;;;;;;;5105576;28;20123;-71
2022/01/28 02:58:15;;;;;;;20.48;3.35;;;;;;;;;;5105217;28;19921;-71
2022/01/28 03:00:41;;;;;;;21.85;2.97;;;;;;;;;;5104731;28;20045;-71
2022/01/28 03:03:08;;;;;;;16.65;2.85;;;;;;;;;;5105343;28;20068;-71
2022/01/28 03:05:34;;;;;;;20.65;3.13;;;;;;;;;;5105145;28;20044;-71
2022/01/28 03:08:03;;;;;;;20.27;3.17;;;;;;;;;;5104598;28;20037;-71
2022/01/28 03:13:28;;;;;;;21.38;3.08;;;;;;;;;;5072488;28;20110;-71
2022/01/28 03:16:05;;;;;;;16.80;2.45;;;;;;;;;;5104298;28;20083;-71
2022/01/28 03:18:41;;;;;;;25.23;2.38;;;;;;;;;;5104803;28;20144;-71
2022/01/28 03:21:19;;;;;;;14.15;2.95;;;;;;;;;;5087954;28;20050;-71
2022/01/28 03:23:45;;;;;;;15.32;2.63;;;;;;;;;;5104465;28;20083;-71
2022/01/28 03:26:11;;;;;;;11.98;2.58;;;;;;;;;;5096034;28;20099;-71
2022/01/28 03:28:37;;;;;;;17.20;2.97;;;;;;;;;;5051016;28;20228;-71
2022/01/28 03:31:03;;;;;;;19.10;2.75;;;;;;;;;;5049723;28;20048;-71
2022/01/28 03:33:29;;;;;;;16.13;2.60;;;;;;;;;;5050791;28;20487;-71
2022/01/28 03:35:55;;;;;;;17.10;2.65;;;;;;;;;;5050669;28;20060;-71
2022/01/28 03:38:21;;;;;;;23.55;2.75;;;;;;;;;;5049987;28;20106;-71
2022/01/28 03:40:49;;;;;;;20.70;3.05;;;;;;;;;;5050697;28;20109;-71
2022/01/28 03:43:15;;;;;;;15.88;2.53;;;;;;;;;;5050475;28;20076;-71
2022/01/28 03:45:41;;;;;;;24.65;2.95;;;;;;;;;;5049587;28;20095;-71
2022/01/28 03:48:07;;;;;;;19.10;2.53;;;;;;;;;;5050295;28;20045;-71
2022/01/28 03:50:34;;;;;;;19.50;2.28;;;;;;;;;;5050228;28;20041;-71
2022/01/28 03:53:01;;;;;;;22.17;3.78;;;;;;;;;;5049703;28;20051;-71
2022/01/28 03:55:27;;;;;;;12.13;2.17;;;;;;;;;;5050237;28;20040;-71
2022/01/28 03:57:53;;;;;;;22.00;3.60;;;;;;;;;;5066871;28;20033;-71
2022/01/28 04:00:20;;;;;;;17.90;3.03;;;;;;;;;;5083037;28;20380;-71
2022/01/28 04:02:47;;;;;;;13.38;2.50;;;;;;;;;;5050016;28;20045;-71
2022/01/28 04:13:27;;;;;;;19.67;3.13;;;;;;;;;;5082794;28;20049;-71
2022/01/28 04:16:16;;;;;;;22.25;3.47;;;;;;;;;;5049921;28;20178;-71
2022/01/28 04:18:39;;;;;;;23.77;3.33;;;;;;;;;;5049793;28;20045;-71
2022/01/28 04:21:05;;;;;;;18.90;2.90;;;;;;;;;;5049268;28;20052;-71
2022/01/28 04:23:31;;;;;;;17.73;2.70;;;;;;;;;;5049634;28;20047;-71
2022/01/28 04:25:57;;;;;;;18.73;4.35;;;;;;;;;;5055880;28;20060;-71
2022/01/28 04:28:23;;;;;;;25.20;3.53;;;;;;;;;;5102652;28;20105;-71
2022/01/28 04:30:49;;;;;;;15.00;2.90;;;;;;;;;;5103331;28;20517;-71
2022/01/28 04:33:15;;;;;;;27.35;3.60;;;;;;;;;;5103533;28;20444;-71
2022/01/28 04:35:41;;;;;;;25.65;3.65;;;;;;;;;;5102730;28;20098;-71
2022/01/28 04:40:40;;;;;;;19.63;2.97;;;;;;;;;;5103238;28;20178;-71
2022/01/28 04:48:26;;;;;;;22.13;4.05;;;;;;;;;;5103185;28;20419;-71
2022/01/28 04:51:09;;;;;;;18.00;3.70;;;;;;;;;;5102422;28;20139;-71
2022/01/28 04:58:59;;;;;;;21.23;3.38;;;;;;;;;;5102322;28;20040;-71
2022/01/28 05:01:56;;;;;;;25.50;3.75;;;;;;;;;;5103032;28;20123;-71
2022/01/28 05:04:47;;;;;;;32.28;3.35;;;;;;;;;;5102730;28;20047;-71
2022/01/28 05:07:32;;;;;;;21.25;3.55;;;;;;;;;;5101667;28;20090;-71
2022/01/28 05:13:19;;;;;;;20.83;3.40;;;;;;;;;;5102035;28;20419;-71
2022/01/28 05:16:13;;;;;;;21.60;3.35;;;;;;;;;;5102500;28;20059;-71
2022/01/28 05:26:52;;;;;;;20.50;3.28;;;;;;;;;;5094651;28;20053;-71
2022/01/28 05:29:18;;;;;;;21.17;3.10;;;;;;;;;;5068172;28;20052;-71
2022/01/28 05:31:46;;;;;;;21.45;3.38;;;;;;;;;;5068789;28;20522;-71
2022/01/28 05:34:12;;;;;;;22.33;3.42;;;;;;;;;;5068496;28;20098;-71
2022/01/28 05:36:38;;;;;;;28.85;4.13;;;;;;;;;;5068044;28;20037;-71
2022/01/28 05:39:04;;;;;;;26.25;3.60;;;;;;;;;;5068684;28;20040;-71
2022/01/28 05:41:31;;;;;;;18.70;2.95;;;;;;;;;;5068673;28;20127;-71
2022/01/28 05:43:57;;;;;;;24.48;3.85;;;;;;;;;;5067826;28;20131;-71
2022/01/28 05:46:27;;;;;;;23.48;3.95;;;;;;;;;;5068510;28;20095;-71
2022/01/28 05:48:53;;;;;;;31.15;4.43;;;;;;;;;;5068425;28;20086;-70
2022/01/28 05:51:19;;;;;;;27.55;4.72;;;;;;;;;;5067885;28;20304;-70
2022/01/28 05:53:45;;;;;;;25.48;3.63;;;;;;;;;;5069606;28;20119;-71
2022/01/28 05:56:11;;;;;;;22.73;4.65;;;;;;;;;;5072640;28;20083;-71
2022/01/28 05:58:37;;;;;;;25.33;3.90;;;;;;;;;;5071589;28;20082;-71
2022/01/28 06:01:03;;;;;;;26.58;3.83;;;;;;;;;;5072621;28;20391;-71
2022/01/28 06:03:29;;;;;;;19.13;4.28;;;;;;;;;;5072249;28;20101;-71
2022/01/28 06:05:55;;;;;;;30.63;3.53;;;;;;;;;;5071616;28;20040;-71
2022/01/28 06:08:21;;;;;;;28.25;5.53;;;;;;;;;;5071880;28;20051;-71
2022/01/28 06:10:47;;;;;;;21.63;4.13;;;;;;;;;;5072115;28;20040;-71
2022/01/28 06:13:13;;;;;;;30.50;4.15;;;;;;;;;;5071732;28;20123;-71
2022/01/28 06:15:40;;;;;;;32.85;4.18;;;;;;;;;;5071452;28;20123;-71
2022/01/28 06:18:06;;;;;;;18.63;3.53;;;;;;;;;;5055183;28;20044;-71
2022/01/28 06:20:32;;;;;;;26.10;4.47;;;;;;;;;;5071490;28;20048;-71
2022/01/28 06:22:58;;;;;;;24.10;3.47;;;;;;;;;;5071999;28;20055;-71
2022/01/28 06:25:25;;;;;;;29.08;3.65;;;;;;;;;;5070328;28;20044;-71
2022/01/28 06:27:51;;;;;;;26.75;4.82;;;;;;;;;;5087820;28;20056;-71
2022/01/28 06:30:17;;;;;;;30.13;4.93;;;;;;;;;;5072051;28;20037;-71
2022/01/28 06:32:44;;;;;;;20.92;2.75;;;;;;;;;;5071412;28;20087;-71
2022/01/28 06:35:10;;;;;;;20.20;3.45;;;;;;;;;;5070979;28;20041;-70
2022/01/28 06:37:40;;;;;;;23.38;3.70;;;;;;;;;;5072948;28;20045;-67
2022/01/28 06:40:07;;;;;;;22.95;3.22;;;;;;;;;;5073533;28;20441;-67
2022/01/28 06:42:33;;;;;;;26.95;3.92;;;;;;;;;;5073474;28;20044;-68
2022/01/28 06:44:59;;;;;;;29.10;3.85;;;;;;;;;;5073885;28;20376;-67
2022/01/28 06:47:26;;;;;;;30.83;4.32;;;;;;;;;;5072210;28;20044;-67
2022/01/28 06:49:52;;;;;;;25.50;3.83;;;;;;;;;;5073418;28;20067;-66
2022/01/28 06:52:18;;;;;;;18.67;3.10;;;;;;;;;;5073915;28;20036;-67
2022/01/28 06:54:44;;;;;;;25.55;3.65;;;;;;;;;;5074029;28;20481;-67
2022/01/28 06:57:10;;;;;;;20.48;3.50;;;;;;;;;;5072947;28;20090;-67
2022/01/28 06:59:36;;;;;;;24.52;3.70;;;;;;;;;;5073820;28;20033;-67
2022/01/28 07:02:02;;;;;;;27.67;3.67;;;;;;;;;;5073807;28;20055;-67
2022/01/28 07:04:28;;;;;;;35.75;4.43;;;;;;;;;;5072841;28;20050;-67
2022/01/28 07:06:54;;;;;;;22.38;3.47;;;;;;;;;;5072784;28;20470;-67
2022/01/28 07:09:20;;;;;;;30.15;3.70;;;;;;;;;;5072764;28;20036;-67
2022/01/28 07:11:46;;;;;;;30.42;3.58;;;;;;;;;;5069385;28;20128;-66
2022/01/28 07:14:12;;;;;;;25.60;3.58;;;;;;;;;;5073172;28;20356;-68
2022/01/28 07:16:38;;;;;;;21.45;3.63;;;;;;;;;;5073227;28;20044;-66
2022/01/28 07:19:04;;;;;;;18.73;3.15;;;;;;;;;;5072899;28;20032;-66
2022/01/28 07:21:30;;;;;;;20.27;3.20;;;;;;;;;;5073067;28;20047;-69
2022/01/28 07:23:56;;;;;;;35.55;4.00;;;;;;;;;;5071604;28;20409;-67
2022/01/28 07:26:22;;;;;;;18.60;3.60;;;;;;;;;;5072470;28;20560;-67
2022/01/28 07:28:49;;;;;;;24.42;3.50;;;;;;;;;;5073141;28;20124;-68
2022/01/28 07:31:18;;;;;;;21.67;3.70;;;;;;;;;;5068615;28;20048;-68
2022/01/28 07:33:44;;;;;;;28.20;3.42;;;;;;;;;;5071388;28;20129;-68
2022/01/28 07:36:10;;;;;;;25.23;3.50;;;;;;;;;;5071319;28;20082;-68
2022/01/28 07:38:36;;;;;;;21.23;2.97;;;;;;;;;;5070804;28;20132;-65
2022/01/28 07:41:02;;;;;;;17.23;3.17;;;;;;;;;;5071252;28;20095;-65
2022/01/28 07:43:28;;;;;;;24.15;3.35;;;;;;;;;;5071322;28;20036;-64
2022/01/28 07:45:55;;;;;;;30.63;4.35;;;;;;;;;;5066951;28;20773;-64
2022/01/28 07:48:21;;;;;;;28.27;4.18;;;;;;;;;;5057100;28;20082;-64
2022/01/28 07:50:47;;;;;;;24.23;4.88;;;;;;;;;;5071231;28;20036;-63
2022/01/28 07:53:16;;;;;;;22.75;3.42;;;;;;;;;;5069763;28;20044;-63
2022/01/28 07:55:43;;;;;;;25.33;3.97;;;;;;;;;;5070199;28;20072;-64
2022/01/28 07:58:09;;;;;;;18.65;3.30;;;;;;;;;;5071153;28;20117;-64
2022/01/28 08:00:35;;;;;;;28.10;3.83;;;;;;;;;;5070624;28;20636;-64
2022/01/28 08:03:01;;;;;;;20.48;3.00;;;;;;;;;;5070412;28;20043;-66
2022/01/28 08:05:27;;;;;;;23.88;3.90;;;;;;;;;;5071520;28;20122;-65
2022/01/28 08:07:53;;;;;;;28.02;3.65;;;;;;;;;;5070407;28;20123;-65
2022/01/28 08:10:20;;;;;;;19.75;3.03;;;;;;;;;;5070414;28;20151;-65
2022/01/28 08:12:46;;;;;;;26.42;3.67;;;;;;;;;;5070652;28;20048;-65
2022/01/28 08:15:12;;;;;;;27.13;3.75;;;;;;;;;;5070822;28;20043;-66
2022/01/28 08:17:38;;;;;;;27.30;3.58;;;;;;;;;;5068867;28;20132;-66
2022/01/28 08:20:05;;;;;;;24.60;3.33;;;;;;;;;;5070799;28;20460;-65
2022/01/28 08:22:31;;;;;;;24.42;4.13;;;;;;;;;;5069915;28;20040;-65
2022/01/28 08:24:57;;;;;;;26.98;3.67;;;;;;;;;;5068475;28;20048;-64
2022/01/28 08:27:23;;;;;;;24.92;3.30;;;;;;;;;;5069723;28;20045;-65
2022/01/28 08:29:49;;;;;;;21.77;3.20;;;;;;;;;;5070978;28;20463;-63
2022/01/28 08:32:15;;;;;;;14.73;4.05;;;;;;;;;;5069881;28;20117;-65
2022/01/28 08:34:41;;;;;;;20.50;3.08;;;;;;;;;;5070697;28;20090;-66
2022/01/28 08:37:07;;;;;;;14.25;2.83;;;;;;;;;;5070364;28;20471;-64
2022/01/28 08:39:35;;;;;;;19.52;3.95;;;;;;;;;;5070073;28;20103;-63
2022/01/28 08:42:01;;;;;;;20.98;3.42;;;;;;;;;;5054844;28;20047;-65
2022/01/28 08:44:28;;;;;;;22.70;3.70;;;;;;;;;;5067401;28;20152;-65
2022/01/28 08:46:54;;;;;;;18.10;3.65;;;;;;;;;;5084638;28;20075;-65
2022/01/28 08:49:20;;;;;;;22.92;3.58;;;;;;;;;;5069619;28;20044;-67
2022/01/28 08:51:48;;;;;;;23.75;3.20;;;;;;;;;;5069949;28;20051;-69
2022/01/28 08:54:14;;;;;;;21.63;3.85;;;;;;;;;;5070717;28;20110;-66
2022/01/28 08:56:41;;;;;;;26.42;3.72;;;;;;;;;;5069473;28;20037;-65
2022/01/28 08:59:07;;;;;;;17.70;3.63;;;;;;;;;;5069897;28;20048;-65
2022/01/28 09:01:33;;;;;;;27.77;3.90;;;;;;;;;;5070419;28;20478;-65
2022/01/28 09:03:59;;;;;;;23.70;3.88;;;;;;;;;;5069419;28;20094;-67
2022/01/28 09:06:25;;;;;;;27.77;4.10;;;;;;;;;;5070232;28;20048;-65
2022/01/28 09:08:55;;;;;;;23.55;3.17;;;;;;;;;;5069636;28;20123;-66
2022/01/28 09:13:47;;;;;;;22.27;3.40;;;;;;;;;;5069292;28;20091;-67
2022/01/28 09:16:13;;;;;;;20.63;3.80;;;;;;;;;;5072079;28;20050;-66
2022/01/28 09:18:39;;;;;;;24.77;3.75;;;;;;;;;;5069507;28;20051;-65
2022/01/28 09:21:05;;;;;;;19.55;3.47;;;;;;;;;;5068823;28;20167;-67
2022/01/28 09:23:32;;;;;;;21.98;3.50;;;;;;;;;;5069997;28;20040;-66
2022/01/28 09:25:58;;;;;;;25.70;4.57;;;;;;;;;;5068961;28;20086;-67
2022/01/28 09:28:24;;;;;;;22.83;3.92;;;;;;;;;;5075205;28;20040;-66
2022/01/28 09:30:50;;;;;;;21.73;4.05;;;;;;;;;;5070260;28;20056;-66
2022/01/28 09:33:16;;;;;;;20.30;3.65;;;;;;;;;;5069312;28;20105;-65
2022/01/28 09:35:42;;;;;;;23.13;4.18;;;;;;;;;;5069917;28;20044;-65
2022/01/28 09:38:09;;;;;;;14.63;3.33;;;;;;;;;;5069760;28;20044;-65
2022/01/28 09:40:35;;;;;;;22.65;3.65;;;;;;;;;;5068702;28;20123;-65
2022/01/28 09:43:04;;;;;;;23.08;4.22;;;;;;;;;;5069705;28;20048;-66
2022/01/28 09:45:30;;;;;;;26.17;3.85;;;;;;;;;;5057080;28;20048;-65
2022/01/28 09:47:57;;;;;;;26.38;3.88;;;;;;;;;;5066296;28;20040;-64
2022/01/28 09:50:23;;;;;;;30.35;4.15;;;;;;;;;;5069954;28;20063;-63
2022/01/28 09:52:51;;;;;;;21.73;3.72;;;;;;;;;;5069523;28;20076;-65
2022/01/28 09:55:18;;;;;;;20.73;3.45;;;;;;;;;;5069511;28;20047;-65
2022/01/28 09:57:47;;;;;;;26.20;3.40;;;;;;;;;;5067411;28;20044;-64
2022/01/28 10:00:13;;;;;;;23.15;3.67;;;;;;;;;;5068951;28;20044;-64
2022/01/28 10:03:00;;;;;;;19.80;3.55;;;;;;;;;;5069610;28;20512;-65
2022/01/28 10:05:30;;;;;;;19.38;3.40;;;;;;;;;;5067762;28;20072;-65
2022/01/28 10:08:15;;;;;;;26.85;4.22;;;;;;;;;;5069110;28;20048;-65
2022/01/28 10:10:49;;;;;;;32.05;4.15;;;;;;;;;;5076645;28;20039;-65
2022/01/28 10:13:21;;;;;;;31.77;4.25;;;;;;;;;;5069486;28;20128;-65
2022/01/28 10:15:54;;;;;;;32.60;4.57;;;;;;;;;;5068828;28;20048;-65
2022/01/28 10:18:20;;;;;;;22.00;3.15;;;;;;;;;;5069290;28;20079;-66
2022/01/28 10:20:46;;;;;;;28.20;3.38;;;;;;;;;;5068798;28;20048;-66
2022/01/28 10:23:13;;;;;;;30.60;3.35;;;;;;;;;;5068644;28;20032;-65
2022/01/28 10:25:42;;;;;;;23.48;3.25;;;;;;;;;;5068368;28;20537;-66
2022/01/28 10:28:09;;;;;;;21.50;3.40;;;;;;;;;;5068925;28;20044;-65
2022/01/28 10:30:36;;;;;;;19.75;3.65;;;;;;;;;;5068569;28;20062;-66
2022/01/28 10:33:11;;;;;;;25.63;3.63;;;;;;;;;;5068772;28;20037;-64
2022/01/28 10:35:39;;;;;;;19.60;3.67;;;;;;;;;;5069808;28;20044;-66
2022/01/28 10:38:07;;;;;;;29.13;3.70;;;;;;;;;;5063830;28;20106;-66
2022/01/28 10:40:34;;;;;;;21.15;2.90;;;;;;;;;;5070340;28;20063;-67
2022/01/28 10:43:00;;;;;;;28.33;5.13;;;;;;;;;;5073316;28;20036;-65
2022/01/28 10:45:30;;;;;;;25.55;4.22;;;;;;;;;;5071241;28;20040;-65
2022/01/28 10:47:57;;;;;;;22.17;3.53;;;;;;;;;;5071964;28;20040;-65
2022/01/28 10:50:34;;;;;;;24.63;3.75;;;;;;;;;;5054969;28;20433;-66
2022/01/28 10:53:05;;;;;;;26.38;4.22;;;;;;;;;;5070965;28;20097;-67
2022/01/28 10:55:32;;;;;;;27.90;3.63;;;;;;;;;;5073209;28;20032;-65
2022/01/28 10:58:00;;;;;;;26.90;3.80;;;;;;;;;;5069927;28;20117;-65
2022/01/28 11:00:27;;;;;;;22.33;3.63;;;;;;;;;;5070938;28;20071;-66
2022/01/28 11:02:54;;;;;;;24.35;3.70;;;;;;;;;;5073528;28;20086;-66
2022/01/28 11:05:21;;;;;;;20.80;3.72;;;;;;;;;;5071052;28;20098;-67
2022/01/28 11:07:48;;;;;;;27.00;3.70;;;;;;;;;;5072154;28;20048;-67
2022/01/28 11:10:14;;;;;;;21.63;3.45;;;;;;;;;;5072464;28;20071;-67
2022/01/28 11:12:40;;;;;;;29.23;4.35;;;;;;;;;;5072564;28;20462;-67
2022/01/28 11:15:07;;;;;;;25.80;3.80;;;;;;;;;;5072237;28;20037;-67
2022/01/28 11:17:36;;;;;;;28.83;3.88;;;;;;;;;;5072858;28;20037;-68
2022/01/28 11:20:02;;;;;;;21.60;3.65;;;;;;;;;;5072494;28;20048;-67
2022/01/28 11:22:47;;;;;;;23.13;3.80;;;;;;;;;;5072210;28;20079;-68
2022/01/28 11:25:14;;;;;;;27.40;4.50;;;;;;;;;;5071949;28;20048;-66
2022/01/28 11:27:40;;;;;;;28.35;4.10;;;;;;;;;;5072656;28;20044;-66
2022/01/28 11:30:16;;;;;;;23.40;3.67;;;;;;;;;;5071818;28;20116;-66
2022/01/28 11:33:12;;;;;;;26.33;3.78;;;;;;;;;;5073170;28;20046;-66
2022/01/28 11:35:39;;;;;;;22.60;3.42;;;;;;;;;;5067260;28;20055;-67
2022/01/28 11:38:30;;;;;;;26.95;4.18;;;;;;;;;;5071690;28;20037;-67
2022/01/28 11:40:59;;;;;;;21.10;3.28;;;;;;;;;;5067312;28;20487;-66
2022/01/28 11:43:27;;;;;;;18.00;3.33;;;;;;;;;;5072777;28;20033;-67
2022/01/28 11:46:12;;;;;;;29.48;4.68;;;;;;;;;;5067517;28;20040;-65
2022/01/28 11:48:54;;;;;;;29.98;3.75;;;;;;;;;;5071509;28;20139;-64
2022/01/28 11:51:24;;;;;;;23.33;3.67;;;;;;;;;;5072260;28;20044;-65
2022/01/28 11:53:57;;;;;;;21.85;4.20;;;;;;;;;;5071263;28;20036;-65
2022/01/28 11:56:24;;;;;;;22.23;3.75;;;;;;;;;;5071198;28;20040;-65
2022/01/28 11:59:01;;;;;;;26.70;3.22;;;;;;;;;;5071013;28;20040;-65
2022/01/28 12:01:39;;;;;;;23.98;3.38;;;;;;;;;;5072528;28;20071;-64
2022/01/28 12:04:27;;;;;;;19.30;3.10;;;;;;;;;;5090691;28;20520;-64
2022/01/28 12:07:06;;;;;;;18.85;3.28;;;;;;;;;;5068924;28;20496;-64
2022/01/28 12:09:33;;;;;;;21.10;3.50;;;;;;;;;;5071924;28;20036;-64
2022/01/28 12:11:59;;;;;;;21.80;3.28;;;;;;;;;;5071100;28;20045;-66
2022/01/28 12:14:44;;;;;;;21.02;3.58;;;;;;;;;;5070835;28;20446;-65
2022/01/28 12:17:29;;;;;;;23.27;3.53;;;;;;;;;;5071321;28;20029;-64
2022/01/28 12:20:10;;;;;;;19.55;2.97;;;;;;;;;;5072242;28;20047;-66
2022/01/28 12:22:56;;;;;;;19.52;2.95;;;;;;;;;;5070513;28;20502;-67
2022/01/28 12:25:37;;;;;;;21.42;3.25;;;;;;;;;;5070968;28;20061;-67
2022/01/28 12:28:21;;;;;;;20.95;3.00;;;;;;;;;;5071561;28;20079;-66
2022/01/28 12:30:49;;;;;;;19.10;3.03;;;;;;;;;;5070382;28;20052;-68
2022/01/28 12:33:22;;;;;;;20.48;3.15;;;;;;;;;;5069609;28;20131;-67
2022/01/28 12:35:51;;;;;;;20.88;3.45;;;;;;;;;;5070657;28;20045;-66
2022/01/28 12:38:21;;;;;;;26.90;3.08;;;;;;;;;;5069376;28;20482;-65
2022/01/28 12:40:51;;;;;;;15.60;2.60;;;;;;;;;;5070972;28;20043;-65
2022/01/28 12:43:19;;;;;;;20.02;3.70;;;;;;;;;;5071892;28;20115;-66
2022/01/28 12:46:00;;;;;;;16.67;2.78;;;;;;;;;;5070098;28;20044;-67
2022/01/28 12:48:26;;;;;;;16.85;2.42;;;;;;;;;;5070897;28;20045;-68
2022/01/28 12:50:56;;;;;;;21.92;3.47;;;;;;;;;;5071529;28;20076;-66
2022/01/28 12:53:26;;;;;;;19.08;3.22;;;;;;;;;;5069498;28;20242;-65
2022/01/28 12:55:52;;;;;;;15.75;3.20;;;;;;;;;;5071333;28;20052;-65
2022/01/28 12:58:18;;;;;;;22.48;3.10;;;;;;;;;;5070752;28;20038;-65
2022/01/28 13:00:44;;;;;;;14.45;2.58;;;;;;;;;;5069746;28;20090;-68
2022/01/28 13:03:24;;;;;;;22.17;3.10;;;;;;;;;;5069752;28;20090;-66
2022/01/28 13:05:56;;;;;;;19.15;3.03;;;;;;;;;;5071038;28;20049;-67
2022/01/28 13:08:25;;;;;;;17.73;3.17;;;;;;;;;;5070259;28;20422;-67
2022/01/28 13:10:51;;;;;;;22.42;3.33;;;;;;;;;;5070811;28;20039;-67
2022/01/28 13:13:19;;;;;;;18.58;2.90;;;;;;;;;;5069037;28;20933;-67
2022/01/28 13:15:52;;;;;;;13.07;2.67;;;;;;;;;;5070792;28;20075;-66
2022/01/28 13:18:18;;;;;;;22.27;3.65;;;;;;;;;;5069020;28;20072;-66
2022/01/28 13:20:44;;;;;;;21.95;2.70;;;;;;;;;;5069625;28;20041;-66
2022/01/28 13:23:12;;;;;;;19.73;2.85;;;;;;;;;;5070741;28;20425;-66
2022/01/28 13:25:38;;;;;;;15.57;3.25;;;;;;;;;;5070358;28;20057;-66
2022/01/28 13:28:11;;;;;;;18.50;3.08;;;;;;;;;;5070703;28;20411;-66
2022/01/28 13:30:39;;;;;;;;;;;;;;;;;;5070838;28;20064;-66
2022/01/28 13:33:09;;;;;;;19.08;3.17;;;;;;;;;;5070270;28;20282;-67
2022/01/28 13:35:37;;;;;;;19.20;3.05;;;;;;;;;;5070220;28;20482;-66
2022/01/28 13:38:13;;;;;;;18.17;2.97;;;;;;;;;;5069713;28;20398;-65
2022/01/28 13:40:39;;;;;;;22.25;3.47;;;;;;;;;;5074726;28;20120;-66
2022/01/28 13:43:16;;;;;;;16.92;3.28;;;;;;;;;;5072772;28;20115;-66
2022/01/28 13:46:04;;;;;;;19.55;2.50;;;;;;;;;;5074064;28;20074;-66
2022/01/28 13:48:34;;;;;;;18.92;2.83;;;;;;;;;;5069305;28;20079;-65
2022/01/28 13:51:12;;;;;;;17.60;2.22;;;;;;;;;;5061906;28;20526;-66
2022/01/28 13:56:28;;;;;;;15.25;2.85;;;;;;;;;;5069392;28;20048;-65
2022/01/28 13:58:54;;;;;;;17.35;2.78;;;;;;;;;;5069715;28;20523;-68
2022/01/28 14:01:21;;;;;;;18.05;2.88;;;;;;;;;;5068533;28;20048;-67
2022/01/28 14:03:58;;;;;;;16.02;2.28;;;;;;;;;;5068085;28;20049;-67
2022/01/28 14:06:24;;;;;;;9.95;1.90;;;;;;;;;;5068089;28;20037;-68
2022/01/28 14:08:53;;;;;;;15.75;2.60;;;;;;;;;;5070112;28;20646;-66
2022/01/28 14:11:20;;;;;;;20.17;3.00;;;;;;;;;;5070738;28;20051;-66
2022/01/28 14:14:03;;;;;;;23.77;3.60;;;;;;;;;;5068658;28;20041;-66
2022/01/28 14:16:29;;;;;;;17.33;3.28;;;;;;;;;;5071754;28;20055;-65
2022/01/28 14:18:55;;;;;;;16.77;2.85;;;;;;;;;;5073739;28;20041;-65
2022/01/28 14:21:21;;;;;;;21.52;2.95;;;;;;;;;;5068112;28;20032;-67
2022/01/28 14:23:47;;;;;;;17.80;2.80;;;;;;;;;;5074125;28;20037;-65
2022/01/28 14:26:14;;;;;;;14.15;2.85;;;;;;;;;;5072133;28;20083;-65
2022/01/28 14:29:09;;;;;;;11.75;2.05;;;;;;;;;;5073237;28;20040;-65
2022/01/28 14:31:27;;;;;;;18.88;2.63;;;;;;;;;;5065283;28;20055;-64
2022/01/28 14:33:54;;;;;;;8.73;1.95;;;;;;;;;;5073254;28;20408;-66
2022/01/28 14:36:21;;;;;;;9.88;1.92;;;;;;;;;;5073395;28;20047;-66
2022/01/28 14:38:47;;;;;;;17.60;2.53;;;;;;;;;;5073575;28;20101;-66
2022/01/28 14:41:14;;;;;;;16.85;3.03;;;;;;;;;;5074180;28;20040;-67
2022/01/28 14:43:40;;;;;;;18.48;2.80;;;;;;;;;;5073675;28;20110;-67
2022/01/28 14:46:06;;;;;;;18.80;2.35;;;;;;;;;;5074211;28;20094;-67
2022/01/28 14:48:32;;;;;;;12.38;2.53;;;;;;;;;;5072757;28;20537;-67
2022/01/28 14:50:59;;;;;;;21.80;2.70;;;;;;;;;;5073398;28;20044;-67
2022/01/28 14:53:25;;;;;;;17.42;3.33;;;;;;;;;;5074443;28;20036;-67
2022/01/28 14:55:51;;;;;;;17.38;3.17;;;;;;;;;;5074534;28;20506;-67
2022/01/28 14:58:17;;;;;;;12.30;2.47;;;;;;;;;;5072265;28;20155;-67
2022/01/28 15:00:44;;;;;;;20.10;3.00;;;;;;;;;;5074302;28;20409;-67
2022/01/28 15:03:10;;;;;;;12.90;2.67;;;;;;;;;;5074449;28;20063;-67
2022/01/28 15:05:37;;;;;;;17.73;2.72;;;;;;;;;;5072417;28;20055;-68
2022/01/28 15:08:08;;;;;;;17.30;2.60;;;;;;;;;;5073796;28;20040;-67
2022/01/28 15:10:34;;;;;;;16.83;2.58;;;;;;;;;;5074392;28;20044;-67
2022/01/28 15:13:00;;;;;;;25.88;3.63;;;;;;;;;;5073330;28;20036;-67
2022/01/28 15:15:26;;;;;;;14.02;2.88;;;;;;;;;;5074039;28;20068;-67
2022/01/28 15:17:52;;;;;;;22.13;3.67;;;;;;;;;;5073884;28;20036;-66
2022/01/28 15:20:19;;;;;;;15.95;2.67;;;;;;;;;;5073241;28;20143;-66
2022/01/28 15:22:45;;;;;;;20.20;3.38;;;;;;;;;;5073980;28;20048;-67
2022/01/28 15:25:11;;;;;;;18.02;3.72;;;;;;;;;;5073486;28;20055;-65
2022/01/28 15:27:37;;;;;;;28.42;9.50;;;;;;;;;;5072535;28;20053;-66
2022/01/28 15:30:08;;;;;;;28.73;7.43;;;;;;;;;;5073654;28;20048;-66
2022/01/28 15:37:57;;;;;;;30.05;7.82;;;;;;;;;;5073114;28;20036;-66
2022/01/28 15:40:23;;;;;;;25.30;10.27;;;;;;;;;;5072213;28;20077;-68
2022/01/28 15:42:53;;;;;;;24.17;7.80;;;;;;;;;;5071650;28;20048;-68
2022/01/28 15:45:19;;;;;;;21.85;5.53;;;;;;;;;;5072026;28;20040;-68
2022/01/28 15:47:46;;;;;;;18.75;6.07;;;;;;;;;;5073458;28;20131;-68
2022/01/28 15:50:13;;;;;;;27.80;6.75;;;;;;;;;;5072904;28;20140;-68
2022/01/28 15:52:40;;;;;;;21.23;5.70;;;;;;;;;;5073381;28;20120;-68
2022/01/28 15:55:07;;;;;;;22.80;6.22;;;;;;;;;;5071886;28;20055;-68
2022/01/28 15:57:33;;;;;;;16.85;5.78;;;;;;;;;;5071600;28;20451;-68
2022/01/28 15:59:59;;;;;;;20.25;4.00;;;;;;;;;;5073258;28;20044;-67